Carlsborg, Washington
Current Conditions -  °F | °C
As of 12:53 AM on Saturday 20 Dec 2014 (Local Time) from KCLM Reporting Station
Overcast Overcast  
Wind Chill:   Ceiling: 8000
Heat Index:   Visibility: 10mi
Dew Point:   Wind: 5mph
Humidity: 93%   Direction: 310°NW
Pressure: 29.72"   Gusts: NA
Location:  48.09°N, 123.17°W
Report Text: KCLM 200853Z AUTO 31004KT 10SM FEW065 OVC080 05/04 A2972 RMK AO2 SLP064 T00500039 58026 TSNO $
Loading
Personal Weather Stations






























Interactive Weather Map New forecast layout! Learn more

10-Day Weather Forecast

Advertisements
Track Severe Weather on mobile